sensor_id;sensor_type;location;lat;lon;timestamp;temperature;humidity
77865;DHT22;67061;48.524;9.040;2023-04-15T00:02:14;1.70;93.50
77865;DHT22;67061;48.524;9.040;2023-04-15T00:04:42;1.60;93.70
77865;DHT22;67061;48.524;9.040;2023-04-15T00:07:09;1.60;93.90
77865;DHT22;67061;48.524;9.040;2023-04-15T00:09:38;1.50;94.10
77865;DHT22;67061;48.524;9.040;2023-04-15T00:12:05;1.50;94.40
77865;DHT22;67061;48.524;9.040;2023-04-15T00:14:33;1.40;95.10
77865;DHT22;67061;48.524;9.040;2023-04-15T00:17:01;1.20;95.40
77865;DHT22;67061;48.524;9.040;2023-04-15T00:19:28;1.30;96.60
77865;DHT22;67061;48.524;9.040;2023-04-15T00:21:55;1.40;96.20
77865;DHT22;67061;48.524;9.040;2023-04-15T00:24:22;1.40;95.80
77865;DHT22;67061;48.524;9.040;2023-04-15T00:26:50;1.40;95.50
77865;DHT22;67061;48.524;9.040;2023-04-15T00:29:18;1.20;96.00
77865;DHT22;67061;48.524;9.040;2023-04-15T00:31:45;1.10;96.20
77865;DHT22;67061;48.524;9.040;2023-04-15T00:34:12;1.00;97.00
77865;DHT22;67061;48.524;9.040;2023-04-15T00:36:39;1.00;97.70
77865;DHT22;67061;48.524;9.040;2023-04-15T00:39:06;1.00;97.50
77865;DHT22;67061;48.524;9.040;2023-04-15T00:41:33;1.10;97.30
77865;DHT22;67061;48.524;9.040;2023-04-15T00:44:05;1.10;96.80
77865;DHT22;67061;48.524;9.040;2023-04-15T00:46:35;1.00;96.60
77865;DHT22;67061;48.524;9.040;2023-04-15T00:49:04;1.00;97.30
77865;DHT22;67061;48.524;9.040;2023-04-15T00:51:31;1.00;97.60
77865;DHT22;67061;48.524;9.040;2023-04-15T00:54:01;1.00;97.30
77865;DHT22;67061;48.524;9.040;2023-04-15T00:56:28;1.00;97.60
77865;DHT22;67061;48.524;9.040;2023-04-15T00:58:56;1.00;97.30
77865;DHT22;67061;48.524;9.040;2023-04-15T01:01:25;1.00;97.60
77865;DHT22;67061;48.524;9.040;2023-04-15T01:03:55;1.00;97.10
77865;DHT22;67061;48.524;9.040;2023-04-15T01:06:22;1.00;98.00
77865;DHT22;67061;48.524;9.040;2023-04-15T01:08:49;1.00;98.00
77865;DHT22;67061;48.524;9.040;2023-04-15T01:11:17;1.00;97.40
77865;DHT22;67061;48.524;9.040;2023-04-15T01:13:45;0.90;97.20
77865;DHT22;67061;48.524;9.040;2023-04-15T01:16:13;0.80;97.70
77865;DHT22;67061;48.524;9.040;2023-04-15T01:18:41;0.80;97.80
77865;DHT22;67061;48.524;9.040;2023-04-15T01:21:08;0.80;97.90
77865;DHT22;67061;48.524;9.040;2023-04-15T01:23:37;0.60;98.50
77865;DHT22;67061;48.524;9.040;2023-04-15T01:26:06;0.60;98.70
77865;DHT22;67061;48.524;9.040;2023-04-15T01:28:33;0.60;99.40
77865;DHT22;67061;48.524;9.040;2023-04-15T01:31:08;0.70;99.10
77865;DHT22;67061;48.524;9.040;2023-04-15T01:33:35;0.80;98.30
77865;DHT22;67061;48.524;9.040;2023-04-15T01:36:03;0.80;98.70
77865;DHT22;67061;48.524;9.040;2023-04-15T01:38:30;0.80;98.00
77865;DHT22;67061;48.524;9.040;2023-04-15T01:40:57;0.80;98.10
77865;DHT22;67061;48.524;9.040;2023-04-15T01:43:26;0.60;98.40
77865;DHT22;67061;48.524;9.040;2023-04-15T01:45:54;0.60;98.30
77865;DHT22;67061;48.524;9.040;2023-04-15T01:48:21;0.60;99.20
77865;DHT22;67061;48.524;9.040;2023-04-15T01:50:48;0.50;99.20
77865;DHT22;67061;48.524;9.040;2023-04-15T01:53:16;0.40;99.60
77865;DHT22;67061;48.524;9.040;2023-04-15T01:55:43;0.40;99.90
77865;DHT22;67061;48.524;9.040;2023-04-15T01:58:10;0.30;99.90
77865;DHT22;67061;48.524;9.040;2023-04-15T02:00:39;0.30;99.90
77865;DHT22;67061;48.524;9.040;2023-04-15T02:03:06;0.30;99.90
77865;DHT22;67061;48.524;9.040;2023-04-15T02:05:33;0.30;99.90
77865;DHT22;67061;48.524;9.040;2023-04-15T02:08:00;0.30;99.90
77865;DHT22;67061;48.524;9.040;2023-04-15T02:10:26;0.30;99.90
77865;DHT22;67061;48.524;9.040;2023-04-15T02:12:53;0.30;99.90
77865;DHT22;67061;48.524;9.040;2023-04-15T02:15:21;0.30;99.90
77865;DHT22;67061;48.524;9.040;2023-04-15T02:17:49;0.30;99.90
77865;DHT22;67061;48.524;9.040;2023-04-15T02:20:18;0.20;99.90
77865;DHT22;67061;48.524;9.040;2023-04-15T02:22:45;0.20;99.90
77865;DHT22;67061;48.524;9.040;2023-04-15T02:25:13;0.20;99.90
77865;DHT22;67061;48.524;9.040;2023-04-15T02:27:41;0.20;99.90
77865;DHT22;67061;48.524;9.040;2023-04-15T02:30:08;0.20;99.90
77865;DHT22;67061;48.524;9.040;2023-04-15T02:32:36;0.20;99.90
77865;DHT22;67061;48.524;9.040;2023-04-15T02:35:06;0.20;99.90
77865;DHT22;67061;48.524;9.040;2023-04-15T02:37:35;0.20;99.90
77865;DHT22;67061;48.524;9.040;2023-04-15T02:40:07;0.20;99.90
77865;DHT22;67061;48.524;9.040;2023-04-15T02:42:37;0.20;99.90
77865;DHT22;67061;48.524;9.040;2023-04-15T02:45:05;0.00;99.80
77865;DHT22;67061;48.524;9.040;2023-04-15T02:47:33;0.10;99.80
77865;DHT22;67061;48.524;9.040;2023-04-15T02:50:01;0.00;99.80
77865;DHT22;67061;48.524;9.040;2023-04-15T02:52:30;0.00;99.90
77865;DHT22;67061;48.524;9.040;2023-04-15T02:54:57;-0.10;99.90
77865;DHT22;67061;48.524;9.040;2023-04-15T02:57:27;-0.10;99.90
77865;DHT22;67061;48.524;9.040;2023-04-15T02:59:54;-0.10;99.90
77865;DHT22;67061;48.524;9.040;2023-04-15T03:02:21;-0.10;99.90
77865;DHT22;67061;48.524;9.040;2023-04-15T03:04:48;-0.20;99.90
77865;DHT22;67061;48.524;9.040;2023-04-15T03:07:16;-0.20;99.90
77865;DHT22;67061;48.524;9.040;2023-04-15T03:09:45;-0.20;99.90
77865;DHT22;67061;48.524;9.040;2023-04-15T03:12:12;-0.20;99.90
77865;DHT22;67061;48.524;9.040;2023-04-15T03:14:39;-0.30;99.90
77865;DHT22;67061;48.524;9.040;2023-04-15T03:17:06;-0.20;99.90
77865;DHT22;67061;48.524;9.040;2023-04-15T03:19:33;-0.30;99.90
77865;DHT22;67061;48.524;9.040;2023-04-15T03:22:00;-0.40;99.90
77865;DHT22;67061;48.524;9.040;2023-04-15T03:24:27;-0.40;99.90
77865;DHT22;67061;48.524;9.040;2023-04-15T03:26:56;-0.50;99.90
77865;DHT22;67061;48.524;9.040;2023-04-15T03:29:23;-0.50;99.90
77865;DHT22;67061;48.524;9.040;2023-04-15T03:31:51;-0.50;99.90
77865;DHT22;67061;48.524;9.040;2023-04-15T03:34:18;-0.60;99.90
77865;DHT22;67061;48.524;9.040;2023-04-15T03:36:46;-0.60;99.90
77865;DHT22;67061;48.524;9.040;2023-04-15T03:39:13;-0.60;99.90
77865;DHT22;67061;48.524;9.040;2023-04-15T03:41:40;-0.60;99.90
77865;DHT22;67061;48.524;9.040;2023-04-15T03:44:08;-0.60;99.90
77865;DHT22;67061;48.524;9.040;2023-04-15T03:46:35;-0.50;99.90
77865;DHT22;67061;48.524;9.040;2023-04-15T03:49:02;-0.40;99.90
77865;DHT22;67061;48.524;9.040;2023-04-15T03:51:29;-0.40;99.90
77865;DHT22;67061;48.524;9.040;2023-04-15T03:53:56;-0.50;99.90
77865;DHT22;67061;48.524;9.040;2023-04-15T03:56:23;-0.50;99.90
77865;DHT22;67061;48.524;9.040;2023-04-15T03:58:50;-0.60;99.90
77865;DHT22;67061;48.524;9.040;2023-04-15T04:01:19;-0.70;99.90
77865;DHT22;67061;48.524;9.040;2023-04-15T04:03:46;-0.70;99.90
77865;DHT22;67061;48.524;9.040;2023-04-15T04:06:13;-0.80;99.90
77865;DHT22;67061;48.524;9.040;2023-04-15T04:08:41;-0.70;99.90
77865;DHT22;67061;48.524;9.040;2023-04-15T04:11:08;-0.80;99.90
77865;DHT22;67061;48.524;9.040;2023-04-15T04:13:35;-0.90;99.90
77865;DHT22;67061;48.524;9.040;2023-04-15T04:16:02;-0.90;99.90
77865;DHT22;67061;48.524;9.040;2023-04-15T04:18:31;-0.80;99.90
77865;DHT22;67061;48.524;9.040;2023-04-15T04:20:58;-0.80;99.90
77865;DHT22;67061;48.524;9.040;2023-04-15T04:23:25;-0.80;99.90
77865;DHT22;67061;48.524;9.040;2023-04-15T04:25:52;-0.80;99.90
77865;DHT22;67061;48.524;9.040;2023-04-15T04:28:19;-0.80;99.90
77865;DHT22;67061;48.524;9.040;2023-04-15T04:30:46;-0.80;99.90
77865;DHT22;67061;48.524;9.040;2023-04-15T04:33:13;-0.80;99.90
77865;DHT22;67061;48.524;9.040;2023-04-15T04:35:42;-0.90;99.90
77865;DHT22;67061;48.524;9.040;2023-04-15T04:38:09;-0.90;99.90
77865;DHT22;67061;48.524;9.040;2023-04-15T04:40:36;-0.90;99.90
77865;DHT22;67061;48.524;9.040;2023-04-15T04:43:03;-0.80;99.90
77865;DHT22;67061;48.524;9.040;2023-04-15T04:45:30;-0.70;99.90
77865;DHT22;67061;48.524;9.040;2023-04-15T04:47:57;-0.70;99.90
77865;DHT22;67061;48.524;9.040;2023-04-15T04:50:24;-0.70;99.90
77865;DHT22;67061;48.524;9.040;2023-04-15T04:52:53;-0.80;99.90
77865;DHT22;67061;48.524;9.040;2023-04-15T04:55:20;-0.70;99.90
77865;DHT22;67061;48.524;9.040;2023-04-15T04:57:47;-0.70;99.90
77865;DHT22;67061;48.524;9.040;2023-04-15T05:00:14;-0.70;99.90
77865;DHT22;67061;48.524;9.040;2023-04-15T05:02:41;-0.80;99.90
77865;DHT22;67061;48.524;9.040;2023-04-15T05:05:09;-0.80;99.90
77865;DHT22;67061;48.524;9.040;2023-04-15T05:07:36;-0.80;99.90
77865;DHT22;67061;48.524;9.040;2023-04-15T05:10:07;-0.90;99.90
77865;DHT22;67061;48.524;9.040;2023-04-15T05:12:34;-0.90;99.90
77865;DHT22;67061;48.524;9.040;2023-04-15T05:15:02;-0.90;99.90
77865;DHT22;67061;48.524;9.040;2023-04-15T05:17:28;-0.90;99.90
77865;DHT22;67061;48.524;9.040;2023-04-15T05:19:57;-0.90;99.90
77865;DHT22;67061;48.524;9.040;2023-04-15T05:22:24;-0.80;99.90
77865;DHT22;67061;48.524;9.040;2023-04-15T05:24:51;-0.70;99.90
77865;DHT22;67061;48.524;9.040;2023-04-15T05:27:20;-0.70;99.90
77865;DHT22;67061;48.524;9.040;2023-04-15T05:29:47;-0.70;99.90
77865;DHT22;67061;48.524;9.040;2023-04-15T05:32:14;-0.70;99.90
77865;DHT22;67061;48.524;9.040;2023-04-15T05:34:42;-0.70;99.90
77865;DHT22;67061;48.524;9.040;2023-04-15T05:37:09;-0.60;99.90
77865;DHT22;67061;48.524;9.040;2023-04-15T05:39:36;-0.60;99.90
77865;DHT22;67061;48.524;9.040;2023-04-15T05:42:03;-0.50;99.90
77865;DHT22;67061;48.524;9.040;2023-04-15T05:44:32;-0.40;99.90
77865;DHT22;67061;48.524;9.040;2023-04-15T05:46:59;-0.30;99.90
77865;DHT22;67061;48.524;9.040;2023-04-15T05:49:28;-0.20;99.90
77865;DHT22;67061;48.524;9.040;2023-04-15T05:51:55;-0.10;99.90
77865;DHT22;67061;48.524;9.040;2023-04-15T05:54:22;-0.10;99.90
77865;DHT22;67061;48.524;9.040;2023-04-15T05:56:49;0.00;99.90
77865;DHT22;67061;48.524;9.040;2023-04-15T05:59:16;0.10;99.90
77865;DHT22;67061;48.524;9.040;2023-04-15T06:01:44;0.20;99.90
77865;DHT22;67061;48.524;9.040;2023-04-15T06:04:11;0.30;99.90
77865;DHT22;67061;48.524;9.040;2023-04-15T06:06:38;0.40;99.90
77865;DHT22;67061;48.524;9.040;2023-04-15T06:09:05;0.40;99.90
77865;DHT22;67061;48.524;9.040;2023-04-15T06:11:32;0.40;99.90
77865;DHT22;67061;48.524;9.040;2023-04-15T06:13:58;0.50;99.90
77865;DHT22;67061;48.524;9.040;2023-04-15T06:16:25;0.50;99.90
77865;DHT22;67061;48.524;9.040;2023-04-15T06:18:54;0.60;99.90
77865;DHT22;67061;48.524;9.040;2023-04-15T06:21:21;0.60;99.90
77865;DHT22;67061;48.524;9.040;2023-04-15T06:23:48;0.60;99.90
77865;DHT22;67061;48.524;9.040;2023-04-15T06:26:14;0.60;99.90
77865;DHT22;67061;48.524;9.040;2023-04-15T06:28:41;0.60;99.90
77865;DHT22;67061;48.524;9.040;2023-04-15T06:31:08;0.80;99.90
77865;DHT22;67061;48.524;9.040;2023-04-15T06:33:35;0.80;99.90
77865;DHT22;67061;48.524;9.040;2023-04-15T06:36:04;0.90;99.40
77865;DHT22;67061;48.524;9.040;2023-04-15T06:38:31;0.90;99.90
77865;DHT22;67061;48.524;9.040;2023-04-15T06:40:58;1.00;99.60
77865;DHT22;67061;48.524;9.040;2023-04-15T06:43:24;1.00;99.70
77865;DHT22;67061;48.524;9.040;2023-04-15T06:45:51;1.10;99.00
77865;DHT22;67061;48.524;9.040;2023-04-15T06:48:18;1.10;98.90
77865;DHT22;67061;48.524;9.040;2023-04-15T06:50:45;1.20;98.80
77865;DHT22;67061;48.524;9.040;2023-04-15T06:53:13;1.40;98.90
77865;DHT22;67061;48.524;9.040;2023-04-15T06:55:40;1.40;98.30
77865;DHT22;67061;48.524;9.040;2023-04-15T06:58:07;1.50;98.30
77865;DHT22;67061;48.524;9.040;2023-04-15T07:00:34;1.60;98.00
77865;DHT22;67061;48.524;9.040;2023-04-15T07:03:03;1.80;97.90
77865;DHT22;67061;48.524;9.040;2023-04-15T07:05:30;1.90;97.20
77865;DHT22;67061;48.524;9.040;2023-04-15T07:07:58;2.00;96.90
77865;DHT22;67061;48.524;9.040;2023-04-15T07:10:26;2.20;95.70
77865;DHT22;67061;48.524;9.040;2023-04-15T07:12:53;2.30;95.00
77865;DHT22;67061;48.524;9.040;2023-04-15T07:15:20;2.50;95.10
77865;DHT22;67061;48.524;9.040;2023-04-15T07:17:48;2.80;94.00
77865;DHT22;67061;48.524;9.040;2023-04-15T07:20:15;3.10;93.30
77865;DHT22;67061;48.524;9.040;2023-04-15T07:22:42;3.30;91.00
77865;DHT22;67061;48.524;9.040;2023-04-15T07:25:09;3.50;89.40
77865;DHT22;67061;48.524;9.040;2023-04-15T07:27:37;3.50;89.00
77865;DHT22;67061;48.524;9.040;2023-04-15T07:30:05;3.70;88.90
77865;DHT22;67061;48.524;9.040;2023-04-15T07:32:32;3.90;87.40
77865;DHT22;67061;48.524;9.040;2023-04-15T07:34:59;4.00;87.00
77865;DHT22;67061;48.524;9.040;2023-04-15T07:37:26;4.20;86.50
77865;DHT22;67061;48.524;9.040;2023-04-15T07:39:54;4.30;85.10
77865;DHT22;67061;48.524;9.040;2023-04-15T07:42:21;4.40;83.90
77865;DHT22;67061;48.524;9.040;2023-04-15T07:44:49;4.40;83.70
77865;DHT22;67061;48.524;9.040;2023-04-15T07:47:17;4.50;83.90
77865;DHT22;67061;48.524;9.040;2023-04-15T07:49:44;4.70;83.20
77865;DHT22;67061;48.524;9.040;2023-04-15T07:52:11;4.90;82.50
77865;DHT22;67061;48.524;9.040;2023-04-15T07:54:37;5.00;82.90
77865;DHT22;67061;48.524;9.040;2023-04-15T07:57:04;5.10;82.20
77865;DHT22;67061;48.524;9.040;2023-04-15T07:59:32;5.30;82.00
77865;DHT22;67061;48.524;9.040;2023-04-15T08:02:00;5.50;82.00
77865;DHT22;67061;48.524;9.040;2023-04-15T08:04:27;5.60;81.40
77865;DHT22;67061;48.524;9.040;2023-04-15T08:06:54;5.70;81.30
77865;DHT22;67061;48.524;9.040;2023-04-15T08:09:22;5.80;81.30
77865;DHT22;67061;48.524;9.040;2023-04-15T08:11:49;6.00;80.80
77865;DHT22;67061;48.524;9.040;2023-04-15T08:14:21;6.10;80.90
77865;DHT22;67061;48.524;9.040;2023-04-15T08:16:48;6.20;82.20
77865;DHT22;67061;48.524;9.040;2023-04-15T08:19:20;6.40;82.00
77865;DHT22;67061;48.524;9.040;2023-04-15T08:21:47;6.60;82.30
77865;DHT22;67061;48.524;9.040;2023-04-15T08:24:14;6.90;81.40
77865;DHT22;67061;48.524;9.040;2023-04-15T08:26:41;7.00;77.70
77865;DHT22;67061;48.524;9.040;2023-04-15T08:29:08;7.00;77.40
77865;DHT22;67061;48.524;9.040;2023-04-15T08:31:35;7.20;75.90
77865;DHT22;67061;48.524;9.040;2023-04-15T08:34:02;7.20;75.30
77865;DHT22;67061;48.524;9.040;2023-04-15T08:36:30;7.30;76.70
77865;DHT22;67061;48.524;9.040;2023-04-15T08:38:58;7.60;75.20
77865;DHT22;67061;48.524;9.040;2023-04-15T08:41:26;7.80;74.50
77865;DHT22;67061;48.524;9.040;2023-04-15T08:43:57;8.00;74.60
77865;DHT22;67061;48.524;9.040;2023-04-15T08:46:24;8.10;73.60
77865;DHT22;67061;48.524;9.040;2023-04-15T08:48:52;8.20;73.70
77865;DHT22;67061;48.524;9.040;2023-04-15T08:51:22;8.20;73.00
77865;DHT22;67061;48.524;9.040;2023-04-15T08:53:51;8.40;71.80
77865;DHT22;67061;48.524;9.040;2023-04-15T08:56:18;8.40;72.60
77865;DHT22;67061;48.524;9.040;2023-04-15T08:58:47;8.50;71.50
77865;DHT22;67061;48.524;9.040;2023-04-15T09:01:16;8.50;70.30
77865;DHT22;67061;48.524;9.040;2023-04-15T09:03:43;8.60;69.90
77865;DHT22;67061;48.524;9.040;2023-04-15T09:06:10;8.60;68.30
77865;DHT22;67061;48.524;9.040;2023-04-15T09:08:37;8.60;68.80
77865;DHT22;67061;48.524;9.040;2023-04-15T09:11:05;8.70;67.40
77865;DHT22;67061;48.524;9.040;2023-04-15T09:13:32;8.90;67.50
77865;DHT22;67061;48.524;9.040;2023-04-15T09:16:01;9.00;66.70
77865;DHT22;67061;48.524;9.040;2023-04-15T09:18:29;9.20;64.60
77865;DHT22;67061;48.524;9.040;2023-04-15T09:21:03;9.20;65.10
77865;DHT22;67061;48.524;9.040;2023-04-15T09:23:31;9.30;65.60
77865;DHT22;67061;48.524;9.040;2023-04-15T09:25:58;9.20;66.50
77865;DHT22;67061;48.524;9.040;2023-04-15T09:28:27;9.20;68.60
77865;DHT22;67061;48.524;9.040;2023-04-15T09:30:55;9.20;67.10
77865;DHT22;67061;48.524;9.040;2023-04-15T09:33:23;9.40;68.30
77865;DHT22;67061;48.524;9.040;2023-04-15T09:35:59;9.50;67.90
77865;DHT22;67061;48.524;9.040;2023-04-15T09:38:26;9.50;68.30
77865;DHT22;67061;48.524;9.040;2023-04-15T09:40:53;9.70;69.10
77865;DHT22;67061;48.524;9.040;2023-04-15T09:43:21;9.90;68.20
77865;DHT22;67061;48.524;9.040;2023-04-15T09:45:51;10.00;67.50
77865;DHT22;67061;48.524;9.040;2023-04-15T09:48:19;10.20;67.50
77865;DHT22;67061;48.524;9.040;2023-04-15T09:50:47;10.30;66.60
77865;DHT22;67061;48.524;9.040;2023-04-15T09:53:16;10.50;65.30
77865;DHT22;67061;48.524;9.040;2023-04-15T09:55:44;10.60;65.90
77865;DHT22;67061;48.524;9.040;2023-04-15T09:58:17;10.70;63.30
77865;DHT22;67061;48.524;9.040;2023-04-15T10:00:46;10.70;64.10
77865;DHT22;67061;48.524;9.040;2023-04-15T10:03:18;10.80;63.00
77865;DHT22;67061;48.524;9.040;2023-04-15T10:05:47;10.70;63.00
77865;DHT22;67061;48.524;9.040;2023-04-15T10:08:16;10.80;65.00
77865;DHT22;67061;48.524;9.040;2023-04-15T10:10:45;10.90;63.70
77865;DHT22;67061;48.524;9.040;2023-04-15T10:13:13;11.00;64.30
77865;DHT22;67061;48.524;9.040;2023-04-15T10:15:44;11.10;65.10
77865;DHT22;67061;48.524;9.040;2023-04-15T10:18:17;11.40;63.30
77865;DHT22;67061;48.524;9.040;2023-04-15T10:20:46;11.30;64.50
77865;DHT22;67061;48.524;9.040;2023-04-15T10:23:14;11.40;63.80
77865;DHT22;67061;48.524;9.040;2023-04-15T10:25:41;11.40;63.80
77865;DHT22;67061;48.524;9.040;2023-04-15T10:28:09;11.50;65.90
77865;DHT22;67061;48.524;9.040;2023-04-15T10:30:37;11.70;64.80
77865;DHT22;67061;48.524;9.040;2023-04-15T10:33:04;12.00;61.00
77865;DHT22;67061;48.524;9.040;2023-04-15T10:35:33;12.10;59.70
77865;DHT22;67061;48.524;9.040;2023-04-15T10:38:00;12.20;58.60
77865;DHT22;67061;48.524;9.040;2023-04-15T10:40:29;12.30;58.80
77865;DHT22;67061;48.524;9.040;2023-04-15T10:42:58;12.50;57.10
77865;DHT22;67061;48.524;9.040;2023-04-15T10:45:26;12.70;53.80
77865;DHT22;67061;48.524;9.040;2023-04-15T10:47:57;12.80;51.80
77865;DHT22;67061;48.524;9.040;2023-04-15T10:50:25;12.90;51.70
77865;DHT22;67061;48.524;9.040;2023-04-15T10:52:55;12.90;51.30
77865;DHT22;67061;48.524;9.040;2023-04-15T10:55:24;12.90;51.60
77865;DHT22;67061;48.524;9.040;2023-04-15T10:57:53;13.00;54.50
77865;DHT22;67061;48.524;9.040;2023-04-15T11:00:24;13.10;52.00
77865;DHT22;67061;48.524;9.040;2023-04-15T11:02:53;13.00;51.60
77865;DHT22;67061;48.524;9.040;2023-04-15T11:05:21;13.10;55.10
77865;DHT22;67061;48.524;9.040;2023-04-15T11:07:50;13.10;54.80
77865;DHT22;67061;48.524;9.040;2023-04-15T11:10:52;13.00;54.20
77865;DHT22;67061;48.524;9.040;2023-04-15T11:13:22;13.00;53.50
77865;DHT22;67061;48.524;9.040;2023-04-15T11:15:51;13.00;54.40
77865;DHT22;67061;48.524;9.040;2023-04-15T11:18:22;13.10;54.00
77865;DHT22;67061;48.524;9.040;2023-04-15T11:20:50;13.10;53.70
77865;DHT22;67061;48.524;9.040;2023-04-15T11:23:25;13.00;52.30
77865;DHT22;67061;48.524;9.040;2023-04-15T11:25:55;12.80;53.10
77865;DHT22;67061;48.524;9.040;2023-04-15T11:28:24;12.80;54.40
77865;DHT22;67061;48.524;9.040;2023-04-15T11:30:52;12.90;53.30
77865;DHT22;67061;48.524;9.040;2023-04-15T11:33:20;13.10;54.20
77865;DHT22;67061;48.524;9.040;2023-04-15T11:35:48;13.20;50.70
77865;DHT22;67061;48.524;9.040;2023-04-15T11:38:18;13.30;48.10
77865;DHT22;67061;48.524;9.040;2023-04-15T11:40:45;13.50;46.80
77865;DHT22;67061;48.524;9.040;2023-04-15T11:43:14;13.80;44.80
77865;DHT22;67061;48.524;9.040;2023-04-15T11:45:53;13.90;42.70
77865;DHT22;67061;48.524;9.040;2023-04-15T11:48:22;14.20;39.50
77865;DHT22;67061;48.524;9.040;2023-04-15T11:50:54;14.30;41.20
77865;DHT22;67061;48.524;9.040;2023-04-15T11:53:21;14.70;41.50
77865;DHT22;67061;48.524;9.040;2023-04-15T11:55:50;15.40;42.10
77865;DHT22;67061;48.524;9.040;2023-04-15T11:58:20;15.30;38.60
77865;DHT22;67061;48.524;9.040;2023-04-15T12:00:49;15.00;40.50
77865;DHT22;67061;48.524;9.040;2023-04-15T12:03:19;14.50;41.60
77865;DHT22;67061;48.524;9.040;2023-04-15T12:06:06;14.00;42.90
77865;DHT22;67061;48.524;9.040;2023-04-15T12:08:56;13.80;43.60
77865;DHT22;67061;48.524;9.040;2023-04-15T12:11:32;13.90;44.90
77865;DHT22;67061;48.524;9.040;2023-04-15T12:14:03;14.60;42.00
77865;DHT22;67061;48.524;9.040;2023-04-15T12:16:32;15.30;40.90
77865;DHT22;67061;48.524;9.040;2023-04-15T12:19:01;16.20;39.70
77865;DHT22;67061;48.524;9.040;2023-04-15T12:21:33;16.50;37.90
77865;DHT22;67061;48.524;9.040;2023-04-15T12:24:02;15.90;39.50
77865;DHT22;67061;48.524;9.040;2023-04-15T12:26:32;15.40;41.50
77865;DHT22;67061;48.524;9.040;2023-04-15T12:29:02;15.40;41.80
77865;DHT22;67061;48.524;9.040;2023-04-15T12:31:29;15.00;40.10
77865;DHT22;67061;48.524;9.040;2023-04-15T12:33:57;14.60;41.20
77865;DHT22;67061;48.524;9.040;2023-04-15T12:36:24;14.40;43.60
77865;DHT22;67061;48.524;9.040;2023-04-15T12:38:51;14.50;44.60
77865;DHT22;67061;48.524;9.040;2023-04-15T12:41:19;14.50;43.50
77865;DHT22;67061;48.524;9.040;2023-04-15T12:43:46;14.50;43.60
77865;DHT22;67061;48.524;9.040;2023-04-15T12:46:15;14.20;44.10
77865;DHT22;67061;48.524;9.040;2023-04-15T12:48:42;13.90;43.90
77865;DHT22;67061;48.524;9.040;2023-04-15T12:51:09;13.70;44.70
77865;DHT22;67061;48.524;9.040;2023-04-15T12:53:35;13.60;44.00
77865;DHT22;67061;48.524;9.040;2023-04-15T12:56:03;13.60;43.80
77865;DHT22;67061;48.524;9.040;2023-04-15T12:58:31;13.70;44.80
77865;DHT22;67061;48.524;9.040;2023-04-15T13:00:58;14.10;45.10
77865;DHT22;67061;48.524;9.040;2023-04-15T13:03:26;14.80;42.30
77865;DHT22;67061;48.524;9.040;2023-04-15T13:05:53;15.30;39.00
77865;DHT22;67061;48.524;9.040;2023-04-15T13:08:20;15.00;38.20
77865;DHT22;67061;48.524;9.040;2023-04-15T13:10:47;14.80;40.80
77865;DHT22;67061;48.524;9.040;2023-04-15T13:13:14;14.80;41.60
77865;DHT22;67061;48.524;9.040;2023-04-15T13:15:40;14.60;42.70
77865;DHT22;67061;48.524;9.040;2023-04-15T13:18:10;14.70;42.40
77865;DHT22;67061;48.524;9.040;2023-04-15T13:20:44;14.30;42.60
77865;DHT22;67061;48.524;9.040;2023-04-15T13:23:11;14.20;42.00
77865;DHT22;67061;48.524;9.040;2023-04-15T13:25:38;14.30;42.70
77865;DHT22;67061;48.524;9.040;2023-04-15T13:28:05;14.20;43.00
77865;DHT22;67061;48.524;9.040;2023-04-15T13:30:32;14.10;44.20
77865;DHT22;67061;48.524;9.040;2023-04-15T13:32:59;13.90;44.80
77865;DHT22;67061;48.524;9.040;2023-04-15T13:35:26;13.70;44.70
77865;DHT22;67061;48.524;9.040;2023-04-15T13:37:54;13.60;45.40
77865;DHT22;67061;48.524;9.040;2023-04-15T13:40:21;13.50;41.70
77865;DHT22;67061;48.524;9.040;2023-04-15T13:42:48;13.50;42.30
77865;DHT22;67061;48.524;9.040;2023-04-15T13:45:15;13.60;41.90
77865;DHT22;67061;48.524;9.040;2023-04-15T13:47:42;13.80;40.10
77865;DHT22;67061;48.524;9.040;2023-04-15T13:50:09;13.90;41.70
77865;DHT22;67061;48.524;9.040;2023-04-15T13:52:36;13.90;43.00
77865;DHT22;67061;48.524;9.040;2023-04-15T13:55:06;14.10;44.90
77865;DHT22;67061;48.524;9.040;2023-04-15T13:57:33;13.90;46.90
77865;DHT22;67061;48.524;9.040;2023-04-15T14:00:00;13.40;48.80
77865;DHT22;67061;48.524;9.040;2023-04-15T14:02:28;13.10;49.30
77865;DHT22;67061;48.524;9.040;2023-04-15T14:04:55;13.00;48.90
77865;DHT22;67061;48.524;9.040;2023-04-15T14:07:22;12.70;49.90
77865;DHT22;67061;48.524;9.040;2023-04-15T14:09:49;12.40;50.00
77865;DHT22;67061;48.524;9.040;2023-04-15T14:12:17;12.20;50.00
77865;DHT22;67061;48.524;9.040;2023-04-15T14:14:44;12.00;50.40
77865;DHT22;67061;48.524;9.040;2023-04-15T14:17:11;11.80;51.10
77865;DHT22;67061;48.524;9.040;2023-04-15T14:19:38;11.70;52.50
77865;DHT22;67061;48.524;9.040;2023-04-15T14:22:05;11.80;52.10
77865;DHT22;67061;48.524;9.040;2023-04-15T14:24:32;11.70;51.70
77865;DHT22;67061;48.524;9.040;2023-04-15T14:26:59;11.70;52.60
77865;DHT22;67061;48.524;9.040;2023-04-15T14:29:28;11.80;50.90
77865;DHT22;67061;48.524;9.040;2023-04-15T14:31:55;11.90;50.50
77865;DHT22;67061;48.524;9.040;2023-04-15T14:34:23;11.90;49.70
77865;DHT22;67061;48.524;9.040;2023-04-15T14:36:51;12.00;50.30
77865;DHT22;67061;48.524;9.040;2023-04-15T14:39:18;12.10;49.00
77865;DHT22;67061;48.524;9.040;2023-04-15T14:41:45;12.10;48.70
77865;DHT22;67061;48.524;9.040;2023-04-15T14:44:12;11.90;47.20
77865;DHT22;67061;48.524;9.040;2023-04-15T14:46:40;11.80;46.90
77865;DHT22;67061;48.524;9.040;2023-04-15T14:49:07;11.70;47.50
77865;DHT22;67061;48.524;9.040;2023-04-15T14:51:34;11.70;47.60
77865;DHT22;67061;48.524;9.040;2023-04-15T14:54:01;11.60;47.50
77865;DHT22;67061;48.524;9.040;2023-04-15T14:56:28;11.60;47.10
77865;DHT22;67061;48.524;9.040;2023-04-15T14:58:55;11.50;46.40
77865;DHT22;67061;48.524;9.040;2023-04-15T15:01:22;11.50;45.60
77865;DHT22;67061;48.524;9.040;2023-04-15T15:03:50;11.50;46.20
77865;DHT22;67061;48.524;9.040;2023-04-15T15:06:19;11.50;45.50
77865;DHT22;67061;48.524;9.040;2023-04-15T15:08:47;11.50;44.10
77865;DHT22;67061;48.524;9.040;2023-04-15T15:11:15;11.40;43.40
77865;DHT22;67061;48.524;9.040;2023-04-15T15:13:42;11.40;44.10
77865;DHT22;67061;48.524;9.040;2023-04-15T15:16:09;11.40;44.60
77865;DHT22;67061;48.524;9.040;2023-04-15T15:18:36;11.40;44.30
77865;DHT22;67061;48.524;9.040;2023-04-15T15:21:04;11.40;44.00
77865;DHT22;67061;48.524;9.040;2023-04-15T15:23:31;11.40;44.40
77865;DHT22;67061;48.524;9.040;2023-04-15T15:25:58;11.30;44.60
77865;DHT22;67061;48.524;9.040;2023-04-15T15:28:25;11.30;45.10
77865;DHT22;67061;48.524;9.040;2023-04-15T15:30:52;11.20;45.80
77865;DHT22;67061;48.524;9.040;2023-04-15T15:33:19;11.30;47.10
77865;DHT22;67061;48.524;9.040;2023-04-15T15:35:46;11.20;47.60
77865;DHT22;67061;48.524;9.040;2023-04-15T15:38:14;11.20;47.50
77865;DHT22;67061;48.524;9.040;2023-04-15T15:40:41;11.10;49.80
77865;DHT22;67061;48.524;9.040;2023-04-15T15:43:08;11.00;50.70